Time;durP1;ratioP1;P1;durP2;ratioP2;P2;SDS_P1;SDS_P2;PMS_P1;PMS_P2;Temp;Humidity;BMP_temperature;BMP_pressure;BME280_temperature;BME280_humidity;BME280_pressure;Samples;Min_cycle;Max_cycle;Signal;HPM_P1;HPM_P2
2022/05/06 00:00:01;;;;;;;17.15;16.35;;;;;;;-141.02;100.00;55844.97;5095148;28;20292;-84
2022/05/06 00:02:28;;;;;;;16.95;16.15;;;;;;;-141.02;100.00;55844.97;5095418;28;20280;-84
2022/05/06 00:04:56;;;;;;;16.92;16.13;;;;;;;-141.02;100.00;55844.97;5095705;28;20317;-80
2022/05/06 00:07:23;;;;;;;16.92;16.13;;;;;;;-141.02;100.00;55844.97;5095565;28;20289;-83
2022/05/06 00:09:50;;;;;;;17.10;16.30;;;;;;;-141.02;100.00;55844.97;5095600;28;20204;-82
2022/05/06 00:12:19;;;;;;;16.58;15.77;;;;;;;-141.02;100.00;55844.97;5095352;28;20194;-80
2022/05/06 00:14:46;;;;;;;16.83;16.02;;;;;;;-141.02;100.00;55844.97;5095415;28;20194;-81
2022/05/06 00:17:14;;;;;;;16.85;16.05;;;;;;;-141.02;100.00;55844.97;5094999;28;20194;-80
2022/05/06 00:19:42;;;;;;;16.95;16.15;;;;;;;-141.02;100.00;55844.97;5094850;28;20200;-80
2022/05/06 00:22:10;;;;;;;16.80;16.00;;;;;;;-141.02;100.00;55844.97;5094627;28;20189;-80
2022/05/06 00:24:38;;;;;;;17.10;16.30;;;;;;;-141.02;100.00;55844.97;5094900;28;20197;-78
2022/05/06 00:27:05;;;;;;;16.38;15.68;;;;;;;-141.02;100.00;55844.97;5094837;28;20205;-80
2022/05/06 00:29:32;;;;;;;16.63;15.82;;;;;;;-141.02;100.00;55844.97;5094485;28;20235;-79
2022/05/06 00:31:59;;;;;;;17.02;16.23;;;;;;;-141.02;100.00;55844.97;5095043;28;20189;-81
2022/05/06 00:34:27;;;;;;;16.88;16.08;;;;;;;-141.02;100.00;55844.97;5094497;28;20284;-80
2022/05/06 00:36:55;;;;;;;17.30;16.50;;;;;;;-141.02;100.00;55844.97;5094715;28;20747;-79
2022/05/06 00:39:23;;;;;;;17.00;16.20;;;;;;;-141.02;100.00;55844.97;5094266;28;20205;-82
2022/05/06 00:41:54;;;;;;;17.50;16.60;;;;;;;-141.02;100.00;55844.97;5094669;28;20204;-82
2022/05/06 00:44:22;;;;;;;17.08;16.27;;;;;;;-141.02;100.00;55844.97;5094242;28;20196;-81
2022/05/06 00:46:52;;;;;;;16.90;16.10;;;;;;;-141.02;100.00;55844.97;5094233;28;20593;-80
2022/05/06 00:49:20;;;;;;;16.73;15.93;;;;;;;-141.02;100.00;55844.97;5094430;28;20240;-82
2022/05/06 00:51:48;;;;;;;17.13;16.33;;;;;;;-141.02;100.00;55844.97;5094157;28;20247;-84
2022/05/06 00:54:16;;;;;;;17.20;16.40;;;;;;;-141.02;100.00;55844.97;5094211;28;20202;-79
2022/05/06 00:56:46;;;;;;;17.42;16.63;;;;;;;-141.02;100.00;55844.97;5092933;28;20194;-80
2022/05/06 00:59:14;;;;;;;16.90;16.10;;;;;;;-141.02;100.00;55844.97;5094386;28;20259;-82
2022/05/06 01:01:41;;;;;;;17.40;16.60;;;;;;;-141.02;100.00;55844.97;5094459;28;20217;-80
2022/05/06 01:04:08;;;;;;;17.10;16.30;;;;;;;-141.02;100.00;55844.97;5093680;28;20196;-81
2022/05/06 01:06:36;;;;;;;16.10;15.40;;;;;;;-141.02;100.00;55844.97;5094290;28;20194;-81
2022/05/06 01:09:04;;;;;;;16.30;15.60;;;;;;;-141.02;100.00;55844.97;5094099;28;20308;-80
2022/05/06 01:11:32;;;;;;;16.77;16.00;;;;;;;-141.02;100.00;55844.97;5094160;28;20197;-82
2022/05/06 01:14:02;;;;;;;17.00;16.20;;;;;;;-141.02;100.00;55844.97;5093868;28;20720;-81
2022/05/06 01:16:34;;;;;;;16.48;15.77;;;;;;;-141.02;100.00;55844.97;5094288;28;20194;-83
2022/05/06 01:19:01;;;;;;;16.85;16.05;;;;;;;-141.02;100.00;55844.97;5093807;28;20620;-80
2022/05/06 01:21:34;;;;;;;16.38;15.68;;;;;;;-141.02;100.00;55844.97;5094601;28;20190;-82
2022/05/06 01:24:02;;;;;;;16.35;15.65;;;;;;;-141.02;100.00;55844.97;5093589;28;20628;-79
2022/05/06 01:26:52;;;;;;;16.40;15.70;;;;;;;-141.02;100.00;55844.97;5093787;28;20190;-83
2022/05/06 01:29:21;;;;;;;15.93;15.23;;;;;;;-141.02;100.00;55844.97;5094051;28;20593;-83
2022/05/06 01:31:48;;;;;;;16.17;15.48;;;;;;;-141.02;100.00;55844.97;5093748;28;20277;-83
2022/05/06 01:34:17;;;;;;;15.73;15.02;;;;;;;-141.02;100.00;55844.97;5093452;28;20230;-84
2022/05/06 01:36:49;;;;;;;16.10;15.40;;;;;;;-141.02;100.00;55844.97;5093588;28;20280;-81
2022/05/06 01:39:20;;;;;;;15.88;15.18;;;;;;;-141.02;100.00;55844.97;5093686;28;20264;-78
2022/05/06 01:41:53;;;;;;;16.55;15.85;;;;;;;-141.02;100.00;55844.97;5093555;28;20190;-83
2022/05/06 01:44:22;;;;;;;16.48;15.77;;;;;;;-141.02;100.00;55844.97;5093438;28;20273;-81
2022/05/06 01:46:49;;;;;;;16.50;15.80;;;;;;;-141.02;100.00;55844.97;5093356;28;20190;-82
2022/05/06 01:49:18;;;;;;;16.33;15.63;;;;;;;-141.02;100.00;55844.97;5093255;28;20230;-83
2022/05/06 01:51:45;;;;;;;16.00;15.30;;;;;;;-141.02;100.00;55844.97;5093279;28;20225;-79
2022/05/06 01:54:12;;;;;;;16.33;15.63;;;;;;;-141.02;100.00;55844.97;5093303;28;20225;-82
2022/05/06 01:56:41;;;;;;;15.73;15.10;;;;;;;-141.02;100.00;55844.97;5092848;28;20284;-81
2022/05/06 01:59:08;;;;;;;15.65;15.00;;;;;;;-141.02;100.00;55844.97;5093226;28;20221;-80
2022/05/06 02:01:35;;;;;;;16.08;15.38;;;;;;;-141.02;100.00;55844.97;5092797;28;20288;-80
2022/05/06 02:06:46;;;;;;;16.17;15.48;;;;;;;-141.02;100.00;55844.97;5093196;28;20228;-80
2022/05/06 02:09:15;;;;;;;16.05;15.35;;;;;;;-141.02;100.00;55844.97;5092653;28;20664;-81
2022/05/06 02:11:43;;;;;;;15.90;15.20;;;;;;;-141.02;100.00;55844.97;5092964;28;20275;-79
2022/05/06 02:14:10;;;;;;;15.98;15.27;;;;;;;-141.02;100.00;55844.97;5092587;28;20198;-80
2022/05/06 02:16:37;;;;;;;15.85;15.15;;;;;;;-141.02;100.00;55844.97;5092604;28;20280;-78
2022/05/06 02:19:06;;;;;;;15.57;14.90;;;;;;;-141.02;100.00;55844.97;5092833;28;20197;-81
2022/05/06 02:21:34;;;;;;;15.68;14.98;;;;;;;-141.02;100.00;55844.97;5092701;28;20659;-80
2022/05/06 02:24:01;;;;;;;15.02;14.43;;;;;;;-141.02;100.00;55844.97;5092806;28;20189;-81
2022/05/06 02:26:28;;;;;;;15.40;14.80;;;;;;;-141.02;100.00;55844.97;5092599;28;20229;-80
2022/05/06 02:28:56;;;;;;;14.98;14.38;;;;;;;-141.02;100.00;55844.97;5093196;28;20308;-80
2022/05/06 02:34:14;;;;;;;15.13;14.53;;;;;;;-141.02;100.00;55844.97;5092777;28;20189;-80
2022/05/06 02:36:41;;;;;;;20.77;19.88;;;;;;;-141.02;100.00;55844.97;5092353;28;20186;-81
2022/05/06 02:39:08;;;;;;;19.98;19.05;;;;;;;-141.02;100.00;55844.97;5092628;28;20233;-81
2022/05/06 02:41:35;;;;;;;15.93;15.23;;;;;;;-141.02;100.00;55844.97;5092407;28;20622;-82
2022/05/06 02:44:05;;;;;;;15.68;15.07;;;;;;;-141.02;100.00;55844.97;5092324;28;20285;-81
2022/05/06 02:46:33;;;;;;;15.10;14.50;;;;;;;-141.02;100.00;55844.97;5092614;28;20214;-81
2022/05/06 02:49:01;;;;;;;15.60;15.00;;;;;;;-141.02;100.00;55844.97;5092597;28;20727;-82
2022/05/06 02:51:29;;;;;;;15.73;15.05;;;;;;;-141.02;100.00;55844.97;5092440;28;20236;-82
2022/05/06 02:53:56;;;;;;;16.20;15.50;;;;;;;-141.02;100.00;55844.97;5092256;28;20589;-81
2022/05/06 02:56:23;;;;;;;15.50;14.90;;;;;;;-141.02;100.00;55844.97;5092329;28;20668;-81
2022/05/06 02:58:50;;;;;;;15.82;15.13;;;;;;;-141.02;100.00;55844.97;5092287;28;20581;-78
2022/05/06 03:01:19;;;;;;;16.10;15.40;;;;;;;-141.02;100.00;55844.97;5092454;28;20193;-80
2022/05/06 03:03:46;;;;;;;16.13;15.43;;;;;;;-141.02;100.00;55844.97;5092275;28;20276;-81
2022/05/06 03:06:13;;;;;;;15.65;14.95;;;;;;;-141.02;100.00;55844.97;5092159;28;20329;-79
2022/05/06 03:08:40;;;;;;;15.90;15.20;;;;;;;-141.02;100.00;55844.97;5092376;28;20222;-81
2022/05/06 03:11:07;;;;;;;15.93;15.23;;;;;;;-141.02;100.00;55844.97;5092286;28;20201;-82
2022/05/06 03:13:35;;;;;;;15.80;15.10;;;;;;;-141.02;100.00;55844.97;5092068;28;20676;-80
2022/05/06 03:16:02;;;;;;;15.40;14.80;;;;;;;-141.02;100.00;55844.97;5092266;28;20200;-82
2022/05/06 03:18:30;;;;;;;15.90;15.20;;;;;;;-141.02;100.00;55844.97;5092370;28;20233;-81
2022/05/06 03:20:57;;;;;;;15.90;15.20;;;;;;;-141.02;100.00;55844.97;5093849;28;20198;-82
2022/05/06 03:23:24;;;;;;;15.20;14.60;;;;;;;-141.02;100.00;55844.97;5096215;28;20568;-80
2022/05/06 03:25:51;;;;;;;15.98;15.27;;;;;;;-141.02;100.00;55844.97;5096394;28;20249;-81
2022/05/06 03:28:18;;;;;;;15.77;15.07;;;;;;;-141.02;100.00;55844.97;5095785;28;20189;-79
2022/05/06 03:30:45;;;;;;;15.77;15.07;;;;;;;-141.02;100.00;55844.97;5095940;28;20664;-82
2022/05/06 03:33:15;;;;;;;15.45;14.75;;;;;;;-141.02;100.00;55844.97;5095804;28;20196;-82
2022/05/06 03:35:43;;;;;;;15.93;15.23;;;;;;;-141.02;100.00;55844.97;5096063;28;20194;-82
2022/05/06 03:38:10;;;;;;;16.08;15.27;;;;;;;-141.02;100.00;55844.97;5095839;28;20240;-82
2022/05/06 03:40:37;;;;;;;15.55;14.85;;;;;;;-141.02;100.00;55844.97;5095716;28;20216;-83
2022/05/06 03:43:05;;;;;;;15.45;14.75;;;;;;;-141.02;100.00;55844.97;5095653;28;20671;-81
2022/05/06 03:45:31;;;;;;;15.60;14.90;;;;;;;-141.02;100.00;55844.97;5095968;28;20272;-80
2022/05/06 03:47:59;;;;;;;15.85;15.15;;;;;;;-141.02;100.00;55844.97;5095743;28;20223;-82
2022/05/06 03:53:13;;;;;;;15.73;15.02;;;;;;;-141.02;100.00;55844.97;5095614;28;20243;-81
2022/05/06 03:55:40;;;;;;;16.20;15.50;;;;;;;-141.02;100.00;55844.97;5095521;28;20204;-80
2022/05/06 03:58:07;;;;;;;15.93;15.23;;;;;;;-141.02;100.00;55844.97;5095749;28;20268;-79
2022/05/06 04:00:34;;;;;;;16.00;15.30;;;;;;;-141.02;100.00;55844.97;5095517;28;20277;-82
2022/05/06 04:03:01;;;;;;;15.68;14.98;;;;;;;-141.02;100.00;55844.97;5095160;28;20683;-80
2022/05/06 04:05:28;;;;;;;15.77;15.07;;;;;;;-141.02;100.00;55844.97;5095176;28;20316;-79
2022/05/06 04:07:56;;;;;;;15.80;15.10;;;;;;;-141.02;100.00;55844.97;5095183;28;20289;-85
2022/05/06 04:10:24;;;;;;;15.65;14.95;;;;;;;-141.02;100.00;55844.97;5095057;28;20229;-81
2022/05/06 04:12:52;;;;;;;15.50;14.80;;;;;;;-141.02;100.00;55844.97;5095010;28;20198;-81
2022/05/06 04:15:19;;;;;;;15.70;15.00;;;;;;;-141.02;100.00;55844.97;5095159;28;20189;-83
2022/05/06 04:17:46;;;;;;;15.30;14.70;;;;;;;-141.02;100.00;55844.97;5095464;28;20225;-83
2022/05/06 04:25:43;;;;;;;15.35;14.75;;;;;;;-141.02;100.00;55844.97;5094988;28;20185;-81
2022/05/06 04:28:11;;;;;;;15.57;14.88;;;;;;;-141.02;100.00;55844.97;5094990;28;20252;-82
2022/05/06 04:30:38;;;;;;;15.25;14.65;;;;;;;-141.02;100.00;55844.97;5094539;28;20595;-81
2022/05/06 04:33:05;;;;;;;15.02;14.43;;;;;;;-141.02;100.00;55844.97;5094217;28;20212;-80
2022/05/06 04:35:33;;;;;;;15.40;14.80;;;;;;;-141.02;100.00;55844.97;5094468;28;20251;-82
2022/05/06 04:38:00;;;;;;;15.57;14.90;;;;;;;-141.02;100.00;55844.97;5094669;28;20204;-81
2022/05/06 04:40:27;;;;;;;15.40;14.80;;;;;;;-141.02;100.00;55844.97;5094282;28;20240;-82
2022/05/06 04:42:55;;;;;;;15.70;15.10;;;;;;;-141.02;100.00;55844.97;5094584;28;20716;-80
2022/05/06 04:45:22;;;;;;;15.90;15.20;;;;;;;-141.02;100.00;55844.97;5094487;28;20652;-81
2022/05/06 04:47:49;;;;;;;15.60;14.90;;;;;;;-141.02;100.00;55844.97;5094519;28;20254;-82
2022/05/06 04:50:16;;;;;;;15.27;14.68;;;;;;;-141.02;100.00;55844.97;5094346;28;20229;-82
2022/05/06 04:52:43;;;;;;;15.68;14.98;;;;;;;-141.02;100.00;55844.97;5094313;28;20578;-82
2022/05/06 04:55:10;;;;;;;15.77;15.07;;;;;;;-141.02;100.00;55844.97;5094296;28;20305;-80
2022/05/06 04:57:37;;;;;;;15.27;14.68;;;;;;;-141.02;100.00;55844.97;5094252;28;20277;-83
2022/05/06 05:00:08;;;;;;;15.27;14.68;;;;;;;-141.02;100.00;55844.97;5094158;28;20193;-82
2022/05/06 05:02:34;;;;;;;15.73;15.02;;;;;;;-141.02;100.00;55844.97;5094431;28;20244;-81
2022/05/06 05:05:03;;;;;;;15.82;15.13;;;;;;;-141.02;100.00;55844.97;5094199;28;20230;-81
2022/05/06 05:07:30;;;;;;;15.65;14.95;;;;;;;-141.02;100.00;55844.97;5094109;28;20205;-79
2022/05/06 05:09:57;;;;;;;15.80;15.10;;;;;;;-141.02;100.00;55844.97;5093794;28;20253;-79
2022/05/06 05:12:24;;;;;;;16.60;15.80;;;;;;;-141.02;100.00;55844.97;5093682;28;20660;-80
2022/05/06 05:14:51;;;;;;;16.25;15.55;;;;;;;-141.02;100.00;55844.97;5093616;28;20243;-81
2022/05/06 05:17:20;;;;;;;15.63;14.93;;;;;;;-141.02;100.00;55844.97;5093623;28;20255;-80
2022/05/06 05:19:47;;;;;;;15.80;15.10;;;;;;;-141.02;100.00;55844.97;5093501;28;20201;-85
2022/05/06 05:22:14;;;;;;;16.15;15.45;;;;;;;-141.02;100.00;55844.97;5093784;28;20202;-77
2022/05/06 05:24:41;;;;;;;16.38;15.68;;;;;;;-141.02;100.00;55844.97;5093796;28;20194;-83
2022/05/06 05:27:08;;;;;;;15.85;15.15;;;;;;;-141.02;100.00;55844.97;5093357;28;20255;-84
2022/05/06 05:29:35;;;;;;;15.93;15.23;;;;;;;-141.02;100.00;55844.97;5093588;28;20225;-83
2022/05/06 05:32:03;;;;;;;15.77;15.07;;;;;;;-141.02;100.00;55844.97;5093458;28;20638;-78
2022/05/06 05:34:31;;;;;;;15.90;15.20;;;;;;;-141.02;100.00;55844.97;5093291;28;20216;-83
2022/05/06 05:36:58;;;;;;;16.02;15.32;;;;;;;-141.02;100.00;55844.97;5093566;28;20277;-81
2022/05/06 05:39:25;;;;;;;16.10;15.40;;;;;;;-141.02;100.00;55844.97;5093507;28;20202;-79
2022/05/06 05:41:52;;;;;;;15.95;15.25;;;;;;;-141.02;100.00;55844.97;5093232;28;20660;-83
2022/05/06 05:49:50;;;;;;;16.58;15.77;;;;;;;-141.02;100.00;55844.97;5093866;28;20298;-87
2022/05/06 05:52:17;;;;;;;16.80;16.00;;;;;;;-141.02;100.00;55844.97;5092973;28;20557;-80
2022/05/06 05:54:44;;;;;;;16.20;15.50;;;;;;;-141.02;100.00;55844.97;5092842;28;20293;-81
2022/05/06 05:57:11;;;;;;;16.13;15.43;;;;;;;-141.02;100.00;55844.97;5093509;28;20621;-80
2022/05/06 05:59:40;;;;;;;16.40;15.70;;;;;;;-141.02;100.00;55844.97;5093228;28;20201;-86
2022/05/06 06:02:07;;;;;;;16.55;15.75;;;;;;;-141.02;100.00;55844.97;5093128;28;20205;-84
2022/05/06 06:04:34;;;;;;;16.88;16.08;;;;;;;-141.02;100.00;55844.97;5093369;28;20297;-81
2022/05/06 06:07:02;;;;;;;17.05;16.25;;;;;;;-141.02;100.00;55844.97;5093009;28;20242;-79
2022/05/06 06:09:32;;;;;;;16.55;15.75;;;;;;;-141.02;100.00;55844.97;5092624;28;20231;-83
2022/05/06 06:11:59;;;;;;;16.52;15.73;;;;;;;-141.02;100.00;55844.97;5093244;28;20223;-82
2022/05/06 06:14:26;;;;;;;16.80;16.00;;;;;;;-141.02;100.00;55844.97;5093477;28;20717;-78
2022/05/06 06:16:53;;;;;;;17.10;16.30;;;;;;;-141.02;100.00;55844.97;5092928;28;20687;-84
2022/05/06 06:19:20;;;;;;;16.60;15.80;;;;;;;-141.02;100.00;55844.97;5093323;28;20198;-82
2022/05/06 06:21:47;;;;;;;16.25;15.55;;;;;;;-141.02;100.00;55844.97;5092616;28;20288;-78
2022/05/06 06:24:15;;;;;;;16.58;15.77;;;;;;;-141.02;100.00;55844.97;5092458;28;20237;-85
2022/05/06 06:26:42;;;;;;;16.30;15.52;;;;;;;-141.02;100.00;55844.97;5092866;28;20197;-80
2022/05/06 06:29:09;;;;;;;16.38;15.63;;;;;;;-141.02;100.00;55844.97;5092763;28;20277;-81
2022/05/06 06:31:37;;;;;;;16.45;15.68;;;;;;;-141.02;100.00;55844.97;5093043;28;20193;-84
2022/05/06 06:34:05;;;;;;;16.40;15.60;;;;;;;-141.02;100.00;55844.97;5092527;28;20379;-78
2022/05/06 06:36:32;;;;;;;16.35;15.55;;;;;;;-141.02;100.00;55844.97;5092827;28;20266;-80
2022/05/06 06:39:00;;;;;;;16.23;15.50;;;;;;;-141.02;100.00;55844.97;5092664;28;20572;-81
2022/05/06 06:41:28;;;;;;;16.30;15.50;;;;;;;-141.02;100.00;55844.97;5092692;28;20220;-82
2022/05/06 06:43:55;;;;;;;16.42;15.63;;;;;;;-141.02;100.00;55844.97;5092450;28;20204;-82
2022/05/06 06:46:22;;;;;;;16.70;15.90;;;;;;;-141.02;100.00;55844.97;5092250;28;20198;-83
2022/05/06 06:48:49;;;;;;;16.70;15.90;;;;;;;-141.02;100.00;55844.97;5092592;28;20193;-85
2022/05/06 06:51:16;;;;;;;16.23;15.50;;;;;;;-141.02;100.00;55844.97;5092429;28;20221;-80
2022/05/06 06:53:43;;;;;;;16.08;15.38;;;;;;;-141.02;100.00;55844.97;5092287;28;20288;-84
2022/05/06 06:56:10;;;;;;;17.52;16.73;;;;;;;-141.02;100.00;55844.97;5097186;28;20205;-80
2022/05/06 06:58:39;;;;;;;16.20;15.50;;;;;;;-141.02;100.00;55844.97;5097301;28;20193;-80
2022/05/06 07:01:06;;;;;;;16.08;15.38;;;;;;;-141.02;100.00;55844.97;5096524;28;20202;-82
2022/05/06 07:03:33;;;;;;;16.50;15.70;;;;;;;-141.02;100.00;55844.97;5096137;28;20617;-79
2022/05/06 07:14:15;;;;;;;16.80;16.00;;;;;;;-141.02;100.00;55844.97;5096316;28;20185;-82
2022/05/06 07:16:43;;;;;;;16.38;15.57;;;;;;;-141.02;100.00;55844.97;5096238;28;20243;-83
2022/05/06 07:19:10;;;;;;;16.10;15.40;;;;;;;-141.02;100.00;55844.97;5096118;28;20198;-81
2022/05/06 07:21:38;;;;;;;16.50;15.70;;;;;;;-141.02;100.00;55844.97;5096417;28;20275;-84
2022/05/06 07:24:06;;;;;;;16.65;15.85;;;;;;;-141.02;100.00;55844.97;5095912;28;20320;-83
2022/05/06 07:26:33;;;;;;;16.85;16.05;;;;;;;-141.02;100.00;55844.97;5096223;28;20194;-81
2022/05/06 07:29:00;;;;;;;18.52;17.73;;;;;;;-141.02;100.00;55844.97;5096901;28;20676;-82
2022/05/06 07:31:28;;;;;;;16.80;16.00;;;;;;;-141.02;100.00;55844.97;5097765;28;20362;-81
2022/05/06 07:33:55;;;;;;;16.77;15.98;;;;;;;-141.02;100.00;55844.97;5096329;28;20237;-82
2022/05/06 07:36:23;;;;;;;16.58;15.77;;;;;;;-141.02;100.00;55844.97;5096605;28;20646;-80
2022/05/06 07:38:50;;;;;;;16.90;16.10;;;;;;;-141.02;100.00;55844.97;5096414;28;20193;-83
2022/05/06 07:41:17;;;;;;;16.92;16.13;;;;;;;-141.02;100.00;55844.97;5096310;28;20202;-79
2022/05/06 07:43:44;;;;;;;16.90;16.10;;;;;;;-141.02;100.00;55844.97;5095814;28;20233;-80
2022/05/06 07:46:12;;;;;;;17.83;16.95;;;;;;;-141.02;100.00;55844.97;5096129;28;20289;-80
2022/05/06 07:48:41;;;;;;;17.17;16.38;;;;;;;-141.02;100.00;55844.97;5096687;28;20652;-80
2022/05/06 07:51:08;;;;;;;16.65;15.85;;;;;;;-141.02;100.00;55844.97;5095888;28;20271;-80
2022/05/06 07:53:35;;;;;;;17.02;16.23;;;;;;;-141.02;100.00;55844.97;5097197;28;20546;-84
2022/05/06 07:56:04;;;;;;;17.50;16.60;;;;;;;-141.02;100.00;55844.97;5096005;28;20194;-81
2022/05/06 07:58:31;;;;;;;17.23;16.42;;;;;;;-141.02;100.00;55844.97;5095623;28;20686;-79
2022/05/06 08:00:58;;;;;;;18.15;17.25;;;;;;;-141.02;100.00;55844.97;5096105;28;20224;-81
2022/05/06 08:06:11;;;;;;;16.88;16.08;;;;;;;-141.02;100.00;55844.97;5095173;28;20298;-80
2022/05/06 08:08:39;;;;;;;16.98;16.17;;;;;;;-141.02;100.00;55844.97;5096358;28;20232;-84
2022/05/06 08:11:06;;;;;;;16.98;16.17;;;;;;;-141.02;100.00;55844.97;5095585;28;20225;-81
2022/05/06 08:13:33;;;;;;;17.63;16.83;;;;;;;-141.02;100.00;55844.97;5095365;28;20272;-81
2022/05/06 08:16:00;;;;;;;17.05;16.25;;;;;;;-141.02;100.00;55844.97;5095871;28;20379;-83
2022/05/06 08:18:28;;;;;;;17.45;16.65;;;;;;;-141.02;100.00;55844.97;5095600;28;20247;-82
2022/05/06 08:20:55;;;;;;;17.45;16.65;;;;;;;-141.02;100.00;55844.97;5095909;28;20625;-81
2022/05/06 08:23:24;;;;;;;17.30;16.50;;;;;;;-141.02;100.00;55844.97;5096105;28;20197;-82
2022/05/06 08:25:51;;;;;;;17.23;16.42;;;;;;;-141.02;100.00;55844.97;5096300;28;20194;-81
2022/05/06 08:28:19;;;;;;;17.45;16.65;;;;;;;-141.02;100.00;55844.97;5095806;28;20217;-80
2022/05/06 08:30:47;;;;;;;17.27;16.48;;;;;;;-141.02;100.00;55844.97;5095208;28;20233;-82
2022/05/06 08:33:14;;;;;;;17.25;16.45;;;;;;;-141.02;100.00;55844.97;5095622;28;20193;-81
2022/05/06 08:35:41;;;;;;;17.55;16.75;;;;;;;-141.02;100.00;55844.97;5095482;28;20189;-83
2022/05/06 08:38:08;;;;;;;17.40;16.60;;;;;;;-141.02;100.00;55844.97;5095312;28;20680;-81
2022/05/06 08:40:37;;;;;;;17.40;16.60;;;;;;;-141.02;100.00;55844.97;5094923;28;20288;-81
2022/05/06 08:43:05;;;;;;;17.25;16.45;;;;;;;-141.02;100.00;55844.97;5095048;28;20189;-81
2022/05/06 08:51:04;;;;;;;17.48;16.67;;;;;;;-141.02;100.00;55844.97;5094841;28;20209;-82
2022/05/06 08:53:33;;;;;;;17.60;16.80;;;;;;;-141.02;100.00;55844.97;5094898;28;20201;-79
2022/05/06 08:56:03;;;;;;;17.88;17.02;;;;;;;-141.02;100.00;55844.97;5094207;28;20198;-84
2022/05/06 08:58:34;;;;;;;17.88;17.08;;;;;;;-141.02;100.00;55844.97;5094557;28;20268;-81
2022/05/06 09:01:04;;;;;;;18.08;17.17;;;;;;;-141.02;100.00;55844.97;5094096;28;20186;-80
2022/05/06 09:03:31;;;;;;;18.25;17.35;;;;;;;-141.02;100.00;55844.97;5094856;28;20285;-81
2022/05/06 09:05:59;;;;;;;18.13;17.23;;;;;;;-141.02;100.00;55844.97;5094246;28;20312;-81
2022/05/06 09:08:36;;;;;;;18.38;17.48;;;;;;;-141.02;100.00;55844.97;5094330;28;20197;-82
2022/05/06 09:11:07;;;;;;;18.60;17.70;;;;;;;-141.02;100.00;55844.97;5094321;28;20300;-81
2022/05/06 09:13:36;;;;;;;18.30;17.40;;;;;;;-141.02;100.00;55844.97;5093881;28;20192;-78
2022/05/06 09:19:17;;;;;;;18.35;17.45;;;;;;;-141.02;100.00;55844.97;5093510;28;20189;-84
2022/05/06 09:22:08;;;;;;;18.25;17.35;;;;;;;-141.02;100.00;55844.97;5093993;28;20190;-80
2022/05/06 09:24:37;;;;;;;18.50;17.60;;;;;;;-141.02;100.00;55844.97;5094231;28;20182;-82
2022/05/06 09:27:08;;;;;;;18.35;17.45;;;;;;;-141.02;100.00;55844.97;5093542;28;20288;-82
2022/05/06 09:29:36;;;;;;;18.35;17.45;;;;;;;-141.02;100.00;55844.97;5093967;28;20190;-79
2022/05/06 09:32:20;;;;;;;18.40;17.50;;;;;;;-141.02;100.00;55844.97;5094032;28;20230;-81
2022/05/06 09:34:49;;;;;;;18.13;17.23;;;;;;;-141.02;100.00;55844.97;5094024;28;20186;-82
2022/05/06 09:37:47;;;;;;;18.25;17.35;;;;;;;-141.02;100.00;55844.97;5093680;28;20243;-78
2022/05/06 09:40:16;;;;;;;18.25;17.35;;;;;;;-141.02;100.00;55844.97;5093469;28;20748;-80
2022/05/06 09:42:47;;;;;;;18.55;17.65;;;;;;;-141.02;100.00;55844.97;5093706;28;20198;-83
2022/05/06 09:45:15;;;;;;;18.30;17.40;;;;;;;-141.02;100.00;55844.97;5093319;28;20186;-82
2022/05/06 09:47:42;;;;;;;18.38;17.48;;;;;;;-141.02;100.00;55844.97;5093651;28;20251;-82
2022/05/06 09:50:11;;;;;;;18.33;17.42;;;;;;;-141.02;100.00;55844.97;5093471;28;20203;-79
2022/05/06 09:52:39;;;;;;;18.65;17.75;;;;;;;-141.02;100.00;55844.97;5094625;28;20229;-80
2022/05/06 09:55:08;;;;;;;18.60;17.70;;;;;;;-141.02;100.00;55844.97;5093466;28;20228;-78
2022/05/06 09:57:37;;;;;;;18.27;17.38;;;;;;;-141.02;100.00;55844.97;5093324;28;20216;-82
2022/05/06 10:00:07;;;;;;;18.23;17.33;;;;;;;-141.02;100.00;55844.97;5093545;28;20197;-80
2022/05/06 10:02:37;;;;;;;18.30;17.40;;;;;;;-141.02;100.00;55844.97;5093669;28;20200;-79
2022/05/06 10:05:04;;;;;;;17.98;17.08;;;;;;;-141.02;100.00;55844.97;5092865;28;20310;-81
2022/05/06 10:07:33;;;;;;;17.98;17.08;;;;;;;-141.02;100.00;55844.97;5093006;28;20194;-79
2022/05/06 10:10:05;;;;;;;18.83;17.92;;;;;;;-141.02;100.00;55844.97;5092703;28;20194;-80
2022/05/06 10:12:38;;;;;;;18.20;17.30;;;;;;;-141.02;100.00;55844.97;5092654;28;20714;-81
2022/05/06 10:15:11;;;;;;;21.10;20.20;;;;;;;-141.02;100.00;55844.97;5092793;28;20190;-79
2022/05/06 10:17:49;;;;;;;20.15;19.35;;;;;;;-141.02;100.00;55844.97;5092723;28;20193;-79
2022/05/06 10:20:51;;;;;;;18.67;17.67;;;;;;;-141.02;100.00;55844.97;5092949;28;20200;-84
2022/05/06 10:23:19;;;;;;;17.83;17.00;;;;;;;-141.02;100.00;55844.97;5087552;28;20235;-85
2022/05/06 10:25:52;;;;;;;17.70;16.80;;;;;;;-141.02;100.00;55844.97;5093848;28;20610;-80
2022/05/06 10:34:30;;;;;;;18.10;17.20;;;;;;;-141.02;100.00;55844.97;5092849;28;20670;-78
2022/05/06 10:37:01;;;;;;;17.83;16.92;;;;;;;-141.02;100.00;55844.97;5092845;28;20200;-81
2022/05/06 10:39:30;;;;;;;18.10;17.20;;;;;;;-141.02;100.00;55844.97;5092626;28;20618;-82
2022/05/06 10:42:05;;;;;;;17.92;17.05;;;;;;;-141.02;100.00;55844.97;5092335;28;20229;-79
2022/05/06 10:44:34;;;;;;;18.23;17.33;;;;;;;-141.02;100.00;55844.97;5092503;28;20273;-81
2022/05/06 10:47:03;;;;;;;18.10;17.20;;;;;;;-141.02;100.00;55844.97;5092661;28;20197;-81
2022/05/06 10:49:49;;;;;;;18.13;17.23;;;;;;;-141.02;100.00;55844.97;5092261;28;20215;-86
2022/05/06 10:52:46;;;;;;;18.15;17.25;;;;;;;-141.02;100.00;55844.97;5092370;28;20241;-78
2022/05/06 10:55:15;;;;;;;17.75;16.85;;;;;;;-141.02;100.00;55844.97;5091461;28;20672;-81
2022/05/06 10:57:58;;;;;;;18.15;17.25;;;;;;;-141.02;100.00;55844.97;5092409;28;20190;-79
2022/05/06 11:00:27;;;;;;;17.83;16.98;;;;;;;-141.02;100.00;55844.97;5092666;28;20186;-79
2022/05/06 11:02:59;;;;;;;18.08;17.17;;;;;;;-141.02;100.00;55844.97;5092233;28;20201;-81
2022/05/06 11:05:29;;;;;;;17.95;17.05;;;;;;;-141.02;100.00;55844.97;5092414;28;20255;-80
2022/05/06 11:07:58;;;;;;;17.95;17.05;;;;;;;-141.02;100.00;55844.97;5092538;28;20205;-79
2022/05/06 11:10:27;;;;;;;18.67;17.77;;;;;;;-141.02;100.00;55844.97;5092433;28;20205;-80
2022/05/06 11:12:57;;;;;;;18.23;17.33;;;;;;;-141.02;100.00;55844.97;5092122;28;20616;-85
2022/05/06 11:15:28;;;;;;;18.27;17.38;;;;;;;-141.02;100.00;55844.97;5092648;28;20371;-79
2022/05/06 11:17:58;;;;;;;17.90;17.00;;;;;;;-141.02;100.00;55844.97;5092220;28;20193;-78
2022/05/06 11:20:28;;;;;;;18.17;17.27;;;;;;;-141.02;100.00;55844.97;5092185;28;20656;-80
2022/05/06 11:23:00;;;;;;;18.45;17.45;;;;;;;-141.02;100.00;55844.97;5092382;28;20201;-80
2022/05/06 11:25:30;;;;;;;18.67;17.67;;;;;;;-141.02;100.00;55844.97;5092534;28;20232;-81
2022/05/06 11:27:58;;;;;;;18.17;17.27;;;;;;;-141.02;100.00;55844.97;5092114;28;20190;-78
2022/05/06 11:30:27;;;;;;;18.02;17.13;;;;;;;-141.02;100.00;55844.97;5092780;28;20193;-81
2022/05/06 11:32:55;;;;;;;18.13;17.23;;;;;;;-141.02;100.00;55844.97;5092146;28;20265;-79
2022/05/06 11:35:29;;;;;;;18.35;17.45;;;;;;;-141.02;100.00;55844.97;5092216;28;20664;-80
2022/05/06 11:37:56;;;;;;;18.35;17.45;;;;;;;-141.02;100.00;55844.97;5092260;28;20183;-79
2022/05/06 11:40:34;;;;;;;18.08;17.17;;;;;;;-141.02;100.00;55844.97;5091888;28;20672;-81
2022/05/06 11:43:08;;;;;;;18.23;17.33;;;;;;;-141.02;100.00;55844.97;5095790;28;20608;-82
2022/05/06 11:48:22;;;;;;;18.50;17.60;;;;;;;-141.02;100.00;55844.97;5096190;28;20180;-81